sensor_id;sensor_type;location;lat;lon;timestamp;noise_LAeq;noise_LA_min;noise_LA_max;noise_LA01;noise_LA95
186;Laerm;55473;48.800;9.002;2023-05-27T00:00:05;35.31;32.71;46.90;;
186;Laerm;55473;48.800;9.002;2023-05-27T00:02:32;36.97;32.49;54.45;;
186;Laerm;55473;48.800;9.002;2023-05-27T00:04:58;35.45;32.32;49.02;;
186;Laerm;55473;48.800;9.002;2023-05-27T00:07:24;34.78;32.33;46.76;;
186;Laerm;55473;48.800;9.002;2023-05-27T00:09:51;34.55;32.40;48.59;;
186;Laerm;55473;48.800;9.002;2023-05-27T00:12:17;34.63;32.37;41.65;;
186;Laerm;55473;48.800;9.002;2023-05-27T00:14:43;34.92;32.40;44.75;;
186;Laerm;55473;48.800;9.002;2023-05-27T00:17:09;42.56;32.18;56.85;;
186;Laerm;55473;48.800;9.002;2023-05-27T00:19:40;38.78;32.06;51.73;;
186;Laerm;55473;48.800;9.002;2023-05-27T00:22:06;34.11;32.22;45.11;;
186;Laerm;55473;48.800;9.002;2023-05-27T00:24:35;34.03;31.77;42.93;;
186;Laerm;55473;48.800;9.002;2023-05-27T00:27:03;33.74;31.84;46.23;;
186;Laerm;55473;48.800;9.002;2023-05-27T00:29:29;34.98;32.21;42.13;;
186;Laerm;55473;48.800;9.002;2023-05-27T00:31:55;34.43;32.15;45.52;;
186;Laerm;55473;48.800;9.002;2023-05-27T00:34:21;34.42;32.25;46.99;;
186;Laerm;55473;48.800;9.002;2023-05-27T00:36:47;34.29;32.47;45.51;;
186;Laerm;55473;48.800;9.002;2023-05-27T00:39:13;34.81;32.26;43.65;;
186;Laerm;55473;48.800;9.002;2023-05-27T00:41:46;34.91;32.34;46.36;;
186;Laerm;55473;48.800;9.002;2023-05-27T00:44:13;35.66;32.77;47.28;;
186;Laerm;55473;48.800;9.002;2023-05-27T00:46:39;42.84;33.24;55.82;;
186;Laerm;55473;48.800;9.002;2023-05-27T00:49:05;37.56;33.01;47.56;;
186;Laerm;55473;48.800;9.002;2023-05-27T00:51:31;36.38;33.28;43.83;;
186;Laerm;55473;48.800;9.002;2023-05-27T00:53:57;36.31;32.63;45.63;;
186;Laerm;55473;48.800;9.002;2023-05-27T00:56:23;35.12;32.30;44.42;;
186;Laerm;55473;48.800;9.002;2023-05-27T00:58:51;35.79;33.07;42.81;;
186;Laerm;55473;48.800;9.002;2023-05-27T01:01:17;36.21;33.20;40.73;;
186;Laerm;55473;48.800;9.002;2023-05-27T01:03:45;35.00;32.33;42.90;;
186;Laerm;55473;48.800;9.002;2023-05-27T01:15:36;36.27;32.11;48.70;;
186;Laerm;55473;48.800;9.002;2023-05-27T01:18:04;45.07;32.77;57.89;;
186;Laerm;55473;48.800;9.002;2023-05-27T01:20:32;36.21;32.69;45.36;;
186;Laerm;55473;48.800;9.002;2023-05-27T01:22:59;35.21;32.20;38.75;;
186;Laerm;55473;48.800;9.002;2023-05-27T01:25:26;35.38;32.87;43.37;;
186;Laerm;55473;48.800;9.002;2023-05-27T01:27:52;35.33;32.64;42.07;;
186;Laerm;55473;48.800;9.002;2023-05-27T01:30:21;36.27;32.94;43.97;;
186;Laerm;55473;48.800;9.002;2023-05-27T01:33:04;35.37;32.81;41.89;;
186;Laerm;55473;48.800;9.002;2023-05-27T01:35:53;35.56;32.71;44.77;;
186;Laerm;55473;48.800;9.002;2023-05-27T01:38:23;37.17;33.31;47.80;;
186;Laerm;55473;48.800;9.002;2023-05-27T01:40:51;35.50;33.18;41.26;;
186;Laerm;55473;48.800;9.002;2023-05-27T01:43:19;38.25;33.20;55.44;;
186;Laerm;55473;48.800;9.002;2023-05-27T01:45:46;43.04;33.12;55.37;;
186;Laerm;55473;48.800;9.002;2023-05-27T01:48:12;35.56;32.78;50.17;;
186;Laerm;55473;48.800;9.002;2023-05-27T01:50:38;37.08;33.42;46.91;;
186;Laerm;55473;48.800;9.002;2023-05-27T01:53:05;36.25;33.64;43.07;;
186;Laerm;55473;48.800;9.002;2023-05-27T01:55:31;35.70;33.20;40.02;;
186;Laerm;55473;48.800;9.002;2023-05-27T01:57:58;35.72;33.10;47.33;;
186;Laerm;55473;48.800;9.002;2023-05-27T02:00:24;37.42;33.01;59.93;;
186;Laerm;55473;48.800;9.002;2023-05-27T02:02:50;34.63;32.19;37.25;;
186;Laerm;55473;48.800;9.002;2023-05-27T02:05:16;35.80;33.12;43.98;;
186;Laerm;55473;48.800;9.002;2023-05-27T02:07:42;35.04;32.83;42.23;;
186;Laerm;55473;48.800;9.002;2023-05-27T02:10:09;35.81;32.94;40.28;;
186;Laerm;55473;48.800;9.002;2023-05-27T02:12:35;36.85;32.97;44.72;;
186;Laerm;55473;48.800;9.002;2023-05-27T02:15:01;37.38;33.66;45.05;;
186;Laerm;55473;48.800;9.002;2023-05-27T02:17:27;40.95;34.01;52.62;;
186;Laerm;55473;48.800;9.002;2023-05-27T02:19:53;38.55;33.56;47.85;;
186;Laerm;55473;48.800;9.002;2023-05-27T02:22:21;37.81;33.32;49.26;;
186;Laerm;55473;48.800;9.002;2023-05-27T02:24:47;47.75;33.74;61.64;;
186;Laerm;55473;48.800;9.002;2023-05-27T02:27:13;52.96;34.15;63.83;;
186;Laerm;55473;48.800;9.002;2023-05-27T02:29:40;42.75;34.45;64.17;;
186;Laerm;55473;48.800;9.002;2023-05-27T02:32:06;43.71;34.28;60.30;;
186;Laerm;55473;48.800;9.002;2023-05-27T02:34:32;44.83;34.38;61.54;;
186;Laerm;55473;48.800;9.002;2023-05-27T02:37:05;47.71;34.25;64.14;;
186;Laerm;55473;48.800;9.002;2023-05-27T02:39:31;46.43;35.45;62.03;;
186;Laerm;55473;48.800;9.002;2023-05-27T02:41:57;47.53;35.40;63.24;;
186;Laerm;55473;48.800;9.002;2023-05-27T02:44:23;50.85;35.89;64.41;;
186;Laerm;55473;48.800;9.002;2023-05-27T02:46:49;52.51;37.15;65.74;;
186;Laerm;55473;48.800;9.002;2023-05-27T02:49:15;54.78;37.44;70.52;;
186;Laerm;55473;48.800;9.002;2023-05-27T02:51:42;55.27;37.82;66.89;;
186;Laerm;55473;48.800;9.002;2023-05-27T02:54:08;54.79;38.79;68.00;;
186;Laerm;55473;48.800;9.002;2023-05-27T02:56:34;53.85;39.09;62.74;;
186;Laerm;55473;48.800;9.002;2023-05-27T02:59:00;57.88;37.88;73.49;;
186;Laerm;55473;48.800;9.002;2023-05-27T03:01:25;55.80;38.05;71.40;;
186;Laerm;55473;48.800;9.002;2023-05-27T03:03:51;54.99;38.64;67.57;;
186;Laerm;55473;48.800;9.002;2023-05-27T03:06:17;55.23;38.16;67.07;;
186;Laerm;55473;48.800;9.002;2023-05-27T03:08:43;55.74;37.52;67.44;;
186;Laerm;55473;48.800;9.002;2023-05-27T03:11:09;55.59;38.17;68.59;;
186;Laerm;55473;48.800;9.002;2023-05-27T03:13:35;55.88;38.87;67.54;;
186;Laerm;55473;48.800;9.002;2023-05-27T03:16:01;56.42;38.64;68.66;;
186;Laerm;55473;48.800;9.002;2023-05-27T03:18:27;54.94;38.77;67.94;;
186;Laerm;55473;48.800;9.002;2023-05-27T03:20:53;54.68;37.52;67.86;;
186;Laerm;55473;48.800;9.002;2023-05-27T03:23:19;54.55;36.34;66.70;;
186;Laerm;55473;48.800;9.002;2023-05-27T03:25:45;54.36;36.17;69.09;;
186;Laerm;55473;48.800;9.002;2023-05-27T03:28:11;54.27;36.72;67.10;;
186;Laerm;55473;48.800;9.002;2023-05-27T03:30:37;53.12;36.89;67.89;;
186;Laerm;55473;48.800;9.002;2023-05-27T03:33:03;52.14;35.89;66.17;;
186;Laerm;55473;48.800;9.002;2023-05-27T03:35:29;53.58;35.51;68.16;;
186;Laerm;55473;48.800;9.002;2023-05-27T03:37:55;50.81;36.53;63.09;;
186;Laerm;55473;48.800;9.002;2023-05-27T03:40:21;50.45;35.63;65.41;;
186;Laerm;55473;48.800;9.002;2023-05-27T03:42:47;49.03;36.23;61.70;;
186;Laerm;55473;48.800;9.002;2023-05-27T03:45:13;49.96;37.82;65.18;;
186;Laerm;55473;48.800;9.002;2023-05-27T03:47:38;53.60;36.69;68.53;;
186;Laerm;55473;48.800;9.002;2023-05-27T03:50:05;53.60;37.79;67.56;;
186;Laerm;55473;48.800;9.002;2023-05-27T03:52:31;52.87;35.55;66.06;;
186;Laerm;55473;48.800;9.002;2023-05-27T03:54:58;52.73;36.23;67.72;;
186;Laerm;55473;48.800;9.002;2023-05-27T03:57:24;54.30;36.00;68.21;;
186;Laerm;55473;48.800;9.002;2023-05-27T03:59:50;53.66;35.83;66.58;;
186;Laerm;55473;48.800;9.002;2023-05-27T04:02:16;53.29;38.04;66.65;;
186;Laerm;55473;48.800;9.002;2023-05-27T04:04:41;53.32;38.24;67.48;;
186;Laerm;55473;48.800;9.002;2023-05-27T04:07:07;49.84;35.28;67.11;;
186;Laerm;55473;48.800;9.002;2023-05-27T04:09:33;50.46;36.33;68.15;;
186;Laerm;55473;48.800;9.002;2023-05-27T04:11:59;51.92;36.22;70.11;;
186;Laerm;55473;48.800;9.002;2023-05-27T04:14:26;51.26;36.90;68.07;;
186;Laerm;55473;48.800;9.002;2023-05-27T04:16:52;52.12;38.46;64.80;;
186;Laerm;55473;48.800;9.002;2023-05-27T04:19:17;47.93;38.23;63.13;;
186;Laerm;55473;48.800;9.002;2023-05-27T04:21:43;47.17;37.62;63.75;;
186;Laerm;55473;48.800;9.002;2023-05-27T04:24:09;46.53;36.11;61.01;;
186;Laerm;55473;48.800;9.002;2023-05-27T04:26:35;46.30;38.10;62.34;;
186;Laerm;55473;48.800;9.002;2023-05-27T04:29:01;50.84;37.82;65.78;;
186;Laerm;55473;48.800;9.002;2023-05-27T04:31:27;51.43;37.41;66.61;;
186;Laerm;55473;48.800;9.002;2023-05-27T04:33:56;50.99;37.53;64.57;;
186;Laerm;55473;48.800;9.002;2023-05-27T04:36:22;55.88;36.62;67.02;;
186;Laerm;55473;48.800;9.002;2023-05-27T04:38:51;51.49;37.19;65.55;;
186;Laerm;55473;48.800;9.002;2023-05-27T04:41:17;49.75;37.13;66.26;;
186;Laerm;55473;48.800;9.002;2023-05-27T04:43:45;50.17;37.50;65.36;;
186;Laerm;55473;48.800;9.002;2023-05-27T04:46:11;49.45;36.30;66.64;;
186;Laerm;55473;48.800;9.002;2023-05-27T04:48:38;46.41;35.94;61.92;;
186;Laerm;55473;48.800;9.002;2023-05-27T04:51:04;43.28;36.39;60.65;;
186;Laerm;55473;48.800;9.002;2023-05-27T04:53:30;46.35;36.39;63.33;;
186;Laerm;55473;48.800;9.002;2023-05-27T04:55:56;46.57;36.52;60.61;;
186;Laerm;55473;48.800;9.002;2023-05-27T04:58:22;46.53;36.14;64.08;;
186;Laerm;55473;48.800;9.002;2023-05-27T05:00:48;46.66;36.79;65.73;;
186;Laerm;55473;48.800;9.002;2023-05-27T05:03:22;47.39;36.47;59.67;;
186;Laerm;55473;48.800;9.002;2023-05-27T05:06:03;48.88;37.52;64.53;;
186;Laerm;55473;48.800;9.002;2023-05-27T05:08:29;49.02;36.58;63.40;;
186;Laerm;55473;48.800;9.002;2023-05-27T05:10:55;50.50;37.11;64.06;;
186;Laerm;55473;48.800;9.002;2023-05-27T05:13:21;49.30;36.82;61.67;;
186;Laerm;55473;48.800;9.002;2023-05-27T05:15:47;47.68;36.17;64.94;;
186;Laerm;55473;48.800;9.002;2023-05-27T05:18:13;49.55;36.56;64.35;;
186;Laerm;55473;48.800;9.002;2023-05-27T05:20:39;45.83;36.89;62.43;;
186;Laerm;55473;48.800;9.002;2023-05-27T05:23:08;42.33;37.18;54.37;;
186;Laerm;55473;48.800;9.002;2023-05-27T05:25:34;50.63;37.43;63.15;;
186;Laerm;55473;48.800;9.002;2023-05-27T05:28:06;43.20;35.81;61.90;;
186;Laerm;55473;48.800;9.002;2023-05-27T05:30:32;43.50;36.51;59.60;;
186;Laerm;55473;48.800;9.002;2023-05-27T05:32:59;44.35;35.89;54.60;;
186;Laerm;55473;48.800;9.002;2023-05-27T05:35:25;47.23;36.60;61.50;;
186;Laerm;55473;48.800;9.002;2023-05-27T05:37:51;50.75;36.01;64.67;;
186;Laerm;55473;48.800;9.002;2023-05-27T05:40:17;50.33;36.84;64.31;;
186;Laerm;55473;48.800;9.002;2023-05-27T05:42:43;51.44;37.69;66.12;;
186;Laerm;55473;48.800;9.002;2023-05-27T05:45:09;53.33;37.30;68.80;;
186;Laerm;55473;48.800;9.002;2023-05-27T05:47:35;47.71;36.54;61.57;;
186;Laerm;55473;48.800;9.002;2023-05-27T05:50:01;44.47;36.56;59.06;;
186;Laerm;55473;48.800;9.002;2023-05-27T05:52:26;43.40;35.74;59.17;;
186;Laerm;55473;48.800;9.002;2023-05-27T05:54:52;44.63;35.07;59.67;;
186;Laerm;55473;48.800;9.002;2023-05-27T05:57:18;48.15;36.80;64.64;;
186;Laerm;55473;48.800;9.002;2023-05-27T05:59:44;47.38;37.18;63.66;;
186;Laerm;55473;48.800;9.002;2023-05-27T06:02:10;65.01;37.39;89.09;;
186;Laerm;55473;48.800;9.002;2023-05-27T06:04:36;46.69;37.03;61.87;;
186;Laerm;55473;48.800;9.002;2023-05-27T06:07:02;45.94;37.03;58.35;;
186;Laerm;55473;48.800;9.002;2023-05-27T06:09:28;45.07;36.87;58.00;;
186;Laerm;55473;48.800;9.002;2023-05-27T06:11:54;44.98;35.42;64.84;;
186;Laerm;55473;48.800;9.002;2023-05-27T06:14:20;45.90;36.66;57.18;;
186;Laerm;55473;48.800;9.002;2023-05-27T06:16:48;47.94;37.29;61.71;;
186;Laerm;55473;48.800;9.002;2023-05-27T06:19:14;46.00;36.94;53.86;;
186;Laerm;55473;48.800;9.002;2023-05-27T06:21:39;45.45;37.05;59.74;;
186;Laerm;55473;48.800;9.002;2023-05-27T06:24:06;52.19;35.95;67.61;;
186;Laerm;55473;48.800;9.002;2023-05-27T06:26:32;53.94;37.87;66.62;;
186;Laerm;55473;48.800;9.002;2023-05-27T06:28:58;53.83;36.22;72.03;;
186;Laerm;55473;48.800;9.002;2023-05-27T06:31:23;51.04;36.45;73.70;;
186;Laerm;55473;48.800;9.002;2023-05-27T06:33:49;47.98;36.08;67.01;;
186;Laerm;55473;48.800;9.002;2023-05-27T06:36:15;43.24;36.13;56.46;;
186;Laerm;55473;48.800;9.002;2023-05-27T06:38:42;44.64;36.04;64.20;;
186;Laerm;55473;48.800;9.002;2023-05-27T06:41:07;43.65;36.14;62.63;;
186;Laerm;55473;48.800;9.002;2023-05-27T06:43:33;46.23;37.36;66.71;;
186;Laerm;55473;48.800;9.002;2023-05-27T06:45:59;53.11;37.83;68.81;;
186;Laerm;55473;48.800;9.002;2023-05-27T06:48:25;51.37;38.93;66.01;;
186;Laerm;55473;48.800;9.002;2023-05-27T06:50:51;47.83;36.76;61.92;;
186;Laerm;55473;48.800;9.002;2023-05-27T06:53:17;48.82;36.23;64.72;;
186;Laerm;55473;48.800;9.002;2023-05-27T06:55:43;49.16;35.95;64.56;;
186;Laerm;55473;48.800;9.002;2023-05-27T06:58:08;47.99;37.14;60.54;;
186;Laerm;55473;48.800;9.002;2023-05-27T07:00:34;50.98;39.33;63.58;;
186;Laerm;55473;48.800;9.002;2023-05-27T07:03:00;49.78;38.65;65.21;;
186;Laerm;55473;48.800;9.002;2023-05-27T07:05:26;48.78;36.14;62.90;;
186;Laerm;55473;48.800;9.002;2023-05-27T07:07:53;47.31;37.35;60.28;;
186;Laerm;55473;48.800;9.002;2023-05-27T07:10:18;47.81;37.07;62.26;;
186;Laerm;55473;48.800;9.002;2023-05-27T07:12:44;48.94;38.17;61.42;;
186;Laerm;55473;48.800;9.002;2023-05-27T07:15:10;50.17;39.38;60.72;;
186;Laerm;55473;48.800;9.002;2023-05-27T07:17:36;49.91;39.40;60.55;;
186;Laerm;55473;48.800;9.002;2023-05-27T07:20:02;48.88;37.61;64.28;;
186;Laerm;55473;48.800;9.002;2023-05-27T07:22:28;48.23;38.68;63.07;;
186;Laerm;55473;48.800;9.002;2023-05-27T07:24:54;47.30;37.98;61.51;;
186;Laerm;55473;48.800;9.002;2023-05-27T07:27:20;48.43;36.85;61.25;;
186;Laerm;55473;48.800;9.002;2023-05-27T07:29:46;48.90;37.71;63.19;;
186;Laerm;55473;48.800;9.002;2023-05-27T07:32:12;50.58;36.54;61.61;;
186;Laerm;55473;48.800;9.002;2023-05-27T07:34:38;47.15;37.19;60.96;;
186;Laerm;55473;48.800;9.002;2023-05-27T07:37:04;50.69;37.30;65.19;;
186;Laerm;55473;48.800;9.002;2023-05-27T07:39:30;49.77;38.88;65.15;;
186;Laerm;55473;48.800;9.002;2023-05-27T07:41:56;47.79;39.35;64.79;;
186;Laerm;55473;48.800;9.002;2023-05-27T07:44:22;53.07;40.44;69.35;;
186;Laerm;55473;48.800;9.002;2023-05-27T07:46:48;52.65;38.23;66.39;;
186;Laerm;55473;48.800;9.002;2023-05-27T07:49:13;54.19;38.74;65.55;;
186;Laerm;55473;48.800;9.002;2023-05-27T07:51:40;49.10;39.54;60.64;;
186;Laerm;55473;48.800;9.002;2023-05-27T07:54:06;50.17;38.32;63.00;;
186;Laerm;55473;48.800;9.002;2023-05-27T07:56:32;52.77;39.15;64.03;;
186;Laerm;55473;48.800;9.002;2023-05-27T07:59:00;53.39;40.79;62.77;;
186;Laerm;55473;48.800;9.002;2023-05-27T08:01:26;53.70;38.60;64.32;;
186;Laerm;55473;48.800;9.002;2023-05-27T08:03:56;49.12;38.18;61.25;;
186;Laerm;55473;48.800;9.002;2023-05-27T08:06:22;53.17;36.68;66.03;;
186;Laerm;55473;48.800;9.002;2023-05-27T08:08:47;52.92;38.06;64.72;;
186;Laerm;55473;48.800;9.002;2023-05-27T08:11:13;53.50;37.87;67.13;;
186;Laerm;55473;48.800;9.002;2023-05-27T08:13:39;53.58;39.89;69.33;;
186;Laerm;55473;48.800;9.002;2023-05-27T08:16:05;53.26;38.08;66.28;;
186;Laerm;55473;48.800;9.002;2023-05-27T08:18:32;53.96;41.67;67.46;;
186;Laerm;55473;48.800;9.002;2023-05-27T08:20:58;51.74;39.77;64.58;;
186;Laerm;55473;48.800;9.002;2023-05-27T08:23:24;48.33;40.86;58.01;;
186;Laerm;55473;48.800;9.002;2023-05-27T08:25:50;50.61;41.44;70.55;;
186;Laerm;55473;48.800;9.002;2023-05-27T08:28:16;54.04;41.73;67.22;;
186;Laerm;55473;48.800;9.002;2023-05-27T08:30:42;47.48;38.27;65.51;;
186;Laerm;55473;48.800;9.002;2023-05-27T08:33:08;51.05;38.96;67.28;;
186;Laerm;55473;48.800;9.002;2023-05-27T08:35:34;49.06;38.66;61.26;;
186;Laerm;55473;48.800;9.002;2023-05-27T08:38:00;50.22;39.18;63.72;;
186;Laerm;55473;48.800;9.002;2023-05-27T08:40:26;53.44;41.91;64.80;;
186;Laerm;55473;48.800;9.002;2023-05-27T08:42:52;50.79;38.30;79.82;;
186;Laerm;55473;48.800;9.002;2023-05-27T08:45:18;49.80;38.63;65.73;;
186;Laerm;55473;48.800;9.002;2023-05-27T08:47:44;50.65;40.38;56.63;;
186;Laerm;55473;48.800;9.002;2023-05-27T08:50:10;51.13;37.70;61.10;;
186;Laerm;55473;48.800;9.002;2023-05-27T08:52:47;48.93;37.94;56.26;;
186;Laerm;55473;48.800;9.002;2023-05-27T08:55:20;50.92;39.07;65.65;;
186;Laerm;55473;48.800;9.002;2023-05-27T08:57:55;50.38;38.31;63.20;;
186;Laerm;55473;48.800;9.002;2023-05-27T09:00:22;49.67;38.51;64.79;;
186;Laerm;55473;48.800;9.002;2023-05-27T09:02:48;46.72;37.44;57.53;;
186;Laerm;55473;48.800;9.002;2023-05-27T09:05:16;45.75;39.23;56.50;;
186;Laerm;55473;48.800;9.002;2023-05-27T09:07:43;49.89;37.26;62.70;;
186;Laerm;55473;48.800;9.002;2023-05-27T09:10:09;45.94;37.54;56.80;;
186;Laerm;55473;48.800;9.002;2023-05-27T09:12:36;49.08;37.29;62.99;;
186;Laerm;55473;48.800;9.002;2023-05-27T09:15:05;51.75;38.65;77.19;;
186;Laerm;55473;48.800;9.002;2023-05-27T09:17:31;51.56;39.65;66.18;;
186;Laerm;55473;48.800;9.002;2023-05-27T09:19:57;52.69;39.48;67.14;;
186;Laerm;55473;48.800;9.002;2023-05-27T09:22:27;48.79;38.38;64.01;;
186;Laerm;55473;48.800;9.002;2023-05-27T09:24:54;52.21;40.04;62.72;;
186;Laerm;55473;48.800;9.002;2023-05-27T09:27:29;54.25;40.90;63.06;;
186;Laerm;55473;48.800;9.002;2023-05-27T09:29:56;54.35;39.56;64.84;;
186;Laerm;55473;48.800;9.002;2023-05-27T09:32:27;50.56;37.58;61.37;;
186;Laerm;55473;48.800;9.002;2023-05-27T09:34:55;50.81;39.32;65.85;;
186;Laerm;55473;48.800;9.002;2023-05-27T09:37:28;51.83;40.11;63.64;;
186;Laerm;55473;48.800;9.002;2023-05-27T09:42:46;51.78;38.97;64.68;;
186;Laerm;55473;48.800;9.002;2023-05-27T09:45:17;52.42;41.16;64.26;;
186;Laerm;55473;48.800;9.002;2023-05-27T09:47:52;51.95;39.22;63.59;;
186;Laerm;55473;48.800;9.002;2023-05-27T09:50:20;52.85;39.20;65.59;;
186;Laerm;55473;48.800;9.002;2023-05-27T09:52:48;50.12;39.04;64.57;;
186;Laerm;55473;48.800;9.002;2023-05-27T09:55:16;51.62;38.98;67.11;;
186;Laerm;55473;48.800;9.002;2023-05-27T09:57:44;46.45;38.01;59.54;;
186;Laerm;55473;48.800;9.002;2023-05-27T10:00:12;50.05;42.55;63.07;;
186;Laerm;55473;48.800;9.002;2023-05-27T10:02:46;49.58;40.31;61.09;;
186;Laerm;55473;48.800;9.002;2023-05-27T10:05:16;48.47;40.45;59.81;;
186;Laerm;55473;48.800;9.002;2023-05-27T10:07:45;46.35;40.10;59.05;;
186;Laerm;55473;48.800;9.002;2023-05-27T10:10:18;45.43;39.83;57.26;;
186;Laerm;55473;48.800;9.002;2023-05-27T10:12:47;48.83;38.20;69.60;;
186;Laerm;55473;48.800;9.002;2023-05-27T10:15:27;78.44;39.45;103.54;;
186;Laerm;55473;48.800;9.002;2023-05-27T10:18:02;49.86;39.01;62.98;;
186;Laerm;55473;48.800;9.002;2023-05-27T10:20:34;52.61;40.42;65.48;;
186;Laerm;55473;48.800;9.002;2023-05-27T10:23:17;47.91;38.26;62.77;;
186;Laerm;55473;48.800;9.002;2023-05-27T10:26:07;44.00;38.26;52.69;;
186;Laerm;55473;48.800;9.002;2023-05-27T10:28:37;44.99;39.54;54.47;;
186;Laerm;55473;48.800;9.002;2023-05-27T10:31:14;46.85;36.95;62.54;;
186;Laerm;55473;48.800;9.002;2023-05-27T10:33:48;50.68;38.82;64.62;;
186;Laerm;55473;48.800;9.002;2023-05-27T10:36:21;49.69;37.68;65.23;;
186;Laerm;55473;48.800;9.002;2023-05-27T10:41:24;48.58;38.71;62.55;;
186;Laerm;55473;48.800;9.002;2023-05-27T10:43:58;44.60;38.39;54.59;;
186;Laerm;55473;48.800;9.002;2023-05-27T10:46:25;47.10;39.42;56.73;;
186;Laerm;55473;48.800;9.002;2023-05-27T10:48:52;50.14;42.33;63.74;;
186;Laerm;55473;48.800;9.002;2023-05-27T10:51:18;49.58;41.24;65.73;;
186;Laerm;55473;48.800;9.002;2023-05-27T10:53:46;48.08;42.57;57.55;;
186;Laerm;55473;48.800;9.002;2023-05-27T10:56:12;48.97;41.64;64.01;;
186;Laerm;55473;48.800;9.002;2023-05-27T10:58:38;53.24;44.02;65.05;;
186;Laerm;55473;48.800;9.002;2023-05-27T11:01:10;49.22;43.33;62.62;;
186;Laerm;55473;48.800;9.002;2023-05-27T11:03:45;54.66;44.54;66.11;;
186;Laerm;55473;48.800;9.002;2023-05-27T11:06:12;47.82;41.38;60.61;;
186;Laerm;55473;48.800;9.002;2023-05-27T11:08:39;48.57;40.89;64.23;;
186;Laerm;55473;48.800;9.002;2023-05-27T11:11:11;51.16;42.88;62.61;;
186;Laerm;55473;48.800;9.002;2023-05-27T11:13:43;49.37;41.97;59.35;;
186;Laerm;55473;48.800;9.002;2023-05-27T11:16:11;49.59;44.24;56.26;;
186;Laerm;55473;48.800;9.002;2023-05-27T11:18:46;51.58;43.28;60.82;;
186;Laerm;55473;48.800;9.002;2023-05-27T11:21:15;50.98;42.72;60.45;;
186;Laerm;55473;48.800;9.002;2023-05-27T11:23:47;49.05;41.32;58.76;;
186;Laerm;55473;48.800;9.002;2023-05-27T11:26:22;50.36;43.05;62.41;;
186;Laerm;55473;48.800;9.002;2023-05-27T11:28:57;48.86;42.42;57.47;;
186;Laerm;55473;48.800;9.002;2023-05-27T11:31:32;46.33;41.85;58.00;;
186;Laerm;55473;48.800;9.002;2023-05-27T11:33:58;47.96;41.38;61.82;;
186;Laerm;55473;48.800;9.002;2023-05-27T11:36:28;50.54;42.95;65.48;;
186;Laerm;55473;48.800;9.002;2023-05-27T11:39:01;51.70;43.19;64.76;;
186;Laerm;55473;48.800;9.002;2023-05-27T11:41:29;47.81;41.85;59.83;;
186;Laerm;55473;48.800;9.002;2023-05-27T11:44:06;51.77;43.68;67.83;;
186;Laerm;55473;48.800;9.002;2023-05-27T11:46:42;48.03;41.86;65.15;;
186;Laerm;55473;48.800;9.002;2023-05-27T11:49:11;51.47;41.81;64.51;;
186;Laerm;55473;48.800;9.002;2023-05-27T11:51:57;46.80;41.89;64.26;;
186;Laerm;55473;48.800;9.002;2023-05-27T11:54:29;51.55;41.68;67.17;;
186;Laerm;55473;48.800;9.002;2023-05-27T11:56:57;50.06;42.26;67.61;;
186;Laerm;55473;48.800;9.002;2023-05-27T11:59:26;53.58;42.17;72.80;;
186;Laerm;55473;48.800;9.002;2023-05-27T12:01:52;48.60;41.86;64.44;;
186;Laerm;55473;48.800;9.002;2023-05-27T12:04:21;49.92;41.98;66.39;;
186;Laerm;55473;48.800;9.002;2023-05-27T12:06:47;54.19;43.24;64.98;;
186;Laerm;55473;48.800;9.002;2023-05-27T12:09:13;48.08;42.48;60.13;;
186;Laerm;55473;48.800;9.002;2023-05-27T12:11:40;50.81;42.43;65.60;;
186;Laerm;55473;48.800;9.002;2023-05-27T12:14:07;48.93;39.56;60.01;;
186;Laerm;55473;48.800;9.002;2023-05-27T12:16:33;47.47;41.87;55.62;;
186;Laerm;55473;48.800;9.002;2023-05-27T12:19:00;48.31;42.85;58.30;;
186;Laerm;55473;48.800;9.002;2023-05-27T12:21:25;46.96;42.18;61.85;;
186;Laerm;55473;48.800;9.002;2023-05-27T12:23:52;51.31;43.79;63.08;;
186;Laerm;55473;48.800;9.002;2023-05-27T12:26:18;52.05;43.72;65.49;;
186;Laerm;55473;48.800;9.002;2023-05-27T12:28:44;50.60;41.98;61.88;;
186;Laerm;55473;48.800;9.002;2023-05-27T12:31:11;51.96;42.61;63.05;;
186;Laerm;55473;48.800;9.002;2023-05-27T12:33:37;51.65;43.22;63.21;;
186;Laerm;55473;48.800;9.002;2023-05-27T12:36:03;50.14;42.19;64.81;;
186;Laerm;55473;48.800;9.002;2023-05-27T12:38:33;50.30;42.01;64.27;;
186;Laerm;55473;48.800;9.002;2023-05-27T12:40:59;47.44;36.50;63.62;;
186;Laerm;55473;48.800;9.002;2023-05-27T12:43:25;50.25;37.17;63.80;;
186;Laerm;55473;48.800;9.002;2023-05-27T12:45:51;53.02;38.80;62.99;;
186;Laerm;55473;48.800;9.002;2023-05-27T12:48:17;50.57;40.20;57.62;;
186;Laerm;55473;48.800;9.002;2023-05-27T12:50:44;54.10;38.83;67.06;;
186;Laerm;55473;48.800;9.002;2023-05-27T12:53:11;51.99;38.36;63.17;;
186;Laerm;55473;48.800;9.002;2023-05-27T12:55:37;51.90;38.00;62.82;;
186;Laerm;55473;48.800;9.002;2023-05-27T12:58:03;55.63;38.92;65.06;;
186;Laerm;55473;48.800;9.002;2023-05-27T13:00:29;52.56;38.87;65.88;;
186;Laerm;55473;48.800;9.002;2023-05-27T13:02:56;59.02;40.28;83.05;;
186;Laerm;55473;48.800;9.002;2023-05-27T13:05:23;50.24;37.99;68.19;;
186;Laerm;55473;48.800;9.002;2023-05-27T13:08:03;49.24;37.23;63.76;;
186;Laerm;55473;48.800;9.002;2023-05-27T13:10:30;51.08;39.30;62.07;;
186;Laerm;55473;48.800;9.002;2023-05-27T13:12:59;51.49;40.47;65.84;;
186;Laerm;55473;48.800;9.002;2023-05-27T13:15:26;48.45;38.35;58.43;;
186;Laerm;55473;48.800;9.002;2023-05-27T13:17:53;48.32;38.58;64.81;;
186;Laerm;55473;48.800;9.002;2023-05-27T13:20:23;49.70;37.43;61.80;;
186;Laerm;55473;48.800;9.002;2023-05-27T13:22:50;46.35;38.39;63.78;;
186;Laerm;55473;48.800;9.002;2023-05-27T13:25:16;48.12;36.81;65.16;;
186;Laerm;55473;48.800;9.002;2023-05-27T13:27:43;53.88;39.37;65.73;;
186;Laerm;55473;48.800;9.002;2023-05-27T13:30:15;50.27;37.33;63.46;;
186;Laerm;55473;48.800;9.002;2023-05-27T13:32:42;48.44;35.97;62.81;;
186;Laerm;55473;48.800;9.002;2023-05-27T13:35:10;50.24;35.66;64.47;;
186;Laerm;55473;48.800;9.002;2023-05-27T13:37:40;49.07;37.11;57.98;;
186;Laerm;55473;48.800;9.002;2023-05-27T13:40:07;50.54;38.50;67.43;;
186;Laerm;55473;48.800;9.002;2023-05-27T13:42:34;44.18;37.30;61.24;;
186;Laerm;55473;48.800;9.002;2023-05-27T13:45:01;48.29;39.53;63.90;;
186;Laerm;55473;48.800;9.002;2023-05-27T13:47:28;52.27;38.65;67.49;;
186;Laerm;55473;48.800;9.002;2023-05-27T13:49:54;50.71;39.39;66.24;;
186;Laerm;55473;48.800;9.002;2023-05-27T13:52:20;47.13;36.65;66.73;;
186;Laerm;55473;48.800;9.002;2023-05-27T13:54:46;40.73;36.01;52.33;;
186;Laerm;55473;48.800;9.002;2023-05-27T13:57:12;49.56;37.49;65.65;;
186;Laerm;55473;48.800;9.002;2023-05-27T13:59:38;52.50;41.22;66.05;;
186;Laerm;55473;48.800;9.002;2023-05-27T14:02:04;50.47;40.53;65.09;;
186;Laerm;55473;48.800;9.002;2023-05-27T14:04:34;46.03;37.47;58.48;;
186;Laerm;55473;48.800;9.002;2023-05-27T14:07:00;52.84;37.08;64.73;;
186;Laerm;55473;48.800;9.002;2023-05-27T14:09:26;42.37;36.03;61.06;;
186;Laerm;55473;48.800;9.002;2023-05-27T14:11:52;44.34;35.49;62.03;;
186;Laerm;55473;48.800;9.002;2023-05-27T14:14:18;45.53;37.48;55.85;;
186;Laerm;55473;48.800;9.002;2023-05-27T14:16:43;46.95;38.92;58.50;;
186;Laerm;55473;48.800;9.002;2023-05-27T14:19:09;45.28;39.32;56.86;;
186;Laerm;55473;48.800;9.002;2023-05-27T14:21:35;43.10;36.58;64.48;;
186;Laerm;55473;48.800;9.002;2023-05-27T14:24:01;42.86;37.12;57.62;;